createdAt,value
2023-02-28T00:00:28.583Z,100.00
2023-02-28T00:02:55.540Z,100.00
2023-02-28T00:05:24.868Z,100.00
2023-02-28T00:07:52.383Z,100.00
2023-02-28T00:10:24.925Z,100.00
2023-02-28T00:12:52.947Z,100.00
2023-02-28T00:15:20.557Z,100.00
2023-02-28T00:17:47.521Z,100.00
2023-02-28T00:20:14.521Z,100.00
2023-02-28T00:22:44.874Z,100.00
2023-02-28T00:25:14.327Z,100.00
2023-02-28T00:27:42.159Z,100.00
2023-02-28T00:30:14.786Z,100.00
2023-02-28T00:32:42.259Z,100.00
2023-02-28T00:35:10.068Z,100.00
2023-02-28T00:37:37.072Z,100.00
2023-02-28T00:40:12.369Z,100.00
2023-02-28T00:42:39.599Z,100.00
2023-02-28T00:45:07.052Z,100.00
2023-02-28T00:47:33.842Z,100.00
2023-02-28T00:50:01.336Z,100.00
2023-02-28T00:52:28.157Z,100.00
2023-02-28T00:54:55.513Z,100.00
2023-02-28T00:57:22.566Z,100.00
2023-02-28T00:59:49.590Z,100.00
2023-02-28T01:02:16.366Z,100.00
2023-02-28T01:04:43.208Z,100.00
2023-02-28T01:07:10.029Z,100.00
2023-02-28T01:09:36.798Z,100.00
2023-02-28T01:12:03.875Z,100.00
2023-02-28T01:14:30.635Z,100.00
2023-02-28T01:16:57.444Z,100.00
2023-02-28T01:19:24.253Z,100.00
2023-02-28T01:21:51.677Z,100.00
2023-02-28T01:24:18.545Z,100.00
2023-02-28T01:26:45.352Z,100.00
2023-02-28T01:29:12.081Z,100.00
2023-02-28T01:31:38.959Z,100.00
2023-02-28T01:34:08.108Z,100.00
2023-02-28T01:36:34.986Z,100.00
2023-02-28T01:39:01.725Z,100.00
2023-02-28T01:41:32.312Z,100.00
2023-02-28T01:44:26.830Z,100.00
2023-02-28T01:46:53.583Z,100.00
2023-02-28T01:49:20.989Z,100.00
2023-02-28T01:51:53.288Z,100.00
2023-02-28T01:54:30.657Z,100.00
2023-02-28T01:57:05.064Z,100.00
2023-02-28T01:59:49.962Z,100.00
2023-02-28T02:02:18.936Z,100.00
2023-02-28T02:05:17.058Z,100.00
2023-02-28T02:07:46.469Z,100.00
2023-02-28T02:10:23.016Z,100.00
2023-02-28T02:12:49.728Z,100.00
2023-02-28T02:15:37.878Z,100.00
2023-02-28T02:18:41.979Z,100.00
2023-02-28T02:21:08.671Z,100.00
2023-02-28T02:23:57.308Z,100.00
2023-02-28T02:27:01.527Z,100.00
2023-02-28T02:29:49.398Z,100.00
2023-02-28T02:32:29.658Z,100.00
2023-02-28T02:35:33.024Z,100.00
2023-02-28T02:38:30.695Z,100.00
2023-02-28T02:41:20.601Z,100.00
2023-02-28T02:44:14.610Z,100.00
2023-02-28T02:46:46.395Z,100.00
2023-02-28T02:49:22.664Z,100.00
2023-02-28T02:51:50.880Z,100.00
2023-02-28T02:54:23.880Z,100.00
2023-02-28T02:56:52.425Z,100.00
2023-02-28T02:59:22.906Z,100.00
2023-02-28T03:02:17.601Z,100.00
2023-02-28T03:04:53.753Z,100.00
2023-02-28T03:07:20.913Z,100.00
2023-02-28T03:09:55.746Z,100.00
2023-02-28T03:12:29.470Z,100.00
2023-02-28T03:15:08.288Z,100.00
2023-02-28T03:17:47.889Z,100.00
2023-02-28T03:20:47.187Z,100.00
2023-02-28T03:23:22.761Z,100.00
2023-02-28T03:26:13.011Z,100.00
2023-02-28T03:29:21.042Z,100.00
2023-02-28T03:32:02.098Z,100.00
2023-02-28T03:34:40.646Z,100.00
2023-02-28T03:37:13.568Z,100.00
2023-02-28T03:39:46.334Z,100.00
2023-02-28T03:42:22.083Z,100.00
2023-02-28T03:44:58.069Z,100.00
2023-02-28T03:47:39.217Z,100.00
2023-02-28T03:50:23.773Z,100.00
2023-02-28T03:53:05.872Z,100.00
2023-02-28T03:55:43.815Z,100.00
2023-02-28T03:58:40.173Z,100.00
2023-02-28T04:01:30.611Z,100.00
2023-02-28T04:03:57.811Z,100.00
2023-02-28T04:06:25.482Z,100.00
2023-02-28T04:08:52.604Z,100.00
2023-02-28T04:11:24.757Z,100.00
2023-02-28T04:13:51.529Z,100.00
2023-02-28T04:16:33.566Z,100.00
2023-02-28T04:19:04.107Z,100.00
2023-02-28T04:21:31.742Z,100.00
2023-02-28T04:24:03.109Z,100.00
2023-02-28T04:26:38.923Z,100.00
2023-02-28T04:29:07.252Z,100.00
2023-02-28T04:31:34.619Z,100.00
2023-02-28T04:34:02.267Z,100.00
2023-02-28T04:36:29.520Z,100.00
2023-02-28T04:38:56.707Z,100.00
2023-02-28T04:41:23.889Z,100.00
2023-02-28T04:43:52.873Z,100.00
2023-02-28T04:46:20.426Z,100.00
2023-02-28T04:48:47.285Z,100.00
2023-02-28T04:51:16.205Z,100.00
2023-02-28T04:53:43.689Z,100.00
2023-02-28T04:56:13.908Z,100.00
2023-02-28T04:58:40.883Z,100.00
2023-02-28T05:01:18.051Z,100.00
2023-02-28T05:03:45.029Z,100.00
2023-02-28T05:06:13.260Z,100.00
2023-02-28T05:08:41.011Z,100.00
2023-02-28T05:11:14.849Z,100.00
2023-02-28T05:13:41.636Z,100.00
2023-02-28T05:16:08.618Z,100.00
2023-02-28T05:18:35.379Z,100.00
2023-02-28T05:21:04.906Z,100.00
2023-02-28T05:23:31.656Z,100.00
2023-02-28T05:25:58.697Z,100.00
2023-02-28T05:28:25.517Z,100.00
2023-02-28T05:30:52.285Z,100.00
2023-02-28T05:33:19.077Z,100.00
2023-02-28T05:35:46.124Z,100.00
2023-02-28T05:38:12.906Z,100.00
2023-02-28T05:40:41.422Z,100.00
2023-02-28T05:43:12.193Z,100.00
2023-02-28T05:45:39.175Z,100.00
2023-02-28T05:48:06.460Z,100.00
2023-02-28T05:50:33.221Z,100.00
2023-02-28T05:53:00.044Z,100.00
2023-02-28T05:55:26.939Z,100.00
2023-02-28T05:57:53.707Z,100.00
2023-02-28T06:00:20.799Z,100.00
2023-02-28T06:02:47.594Z,100.00
2023-02-28T06:05:17.223Z,100.00
2023-02-28T06:07:44.781Z,100.00
2023-02-28T06:10:12.928Z,100.00
2023-02-28T06:12:39.988Z,100.00
2023-02-28T06:15:07.217Z,100.00
2023-02-28T06:17:33.979Z,100.00
2023-02-28T06:20:00.791Z,100.00
2023-02-28T06:22:27.612Z,100.00
2023-02-28T06:24:55.799Z,100.00
2023-02-28T06:27:23.229Z,100.00
2023-02-28T06:29:50.075Z,100.00
2023-02-28T06:32:16.865Z,100.00
2023-02-28T06:34:43.754Z,100.00
2023-02-28T06:37:10.482Z,100.00
2023-02-28T06:39:37.545Z,100.00
2023-02-28T06:42:05.035Z,100.00
2023-02-28T06:44:36.428Z,100.00
2023-02-28T06:47:07.153Z,100.00
2023-02-28T06:49:36.438Z,100.00
2023-02-28T06:52:03.911Z,100.00
2023-02-28T06:54:30.702Z,100.00
2023-02-28T06:56:59.281Z,100.00
2023-02-28T06:59:26.039Z,100.00
2023-02-28T07:01:53.269Z,100.00
2023-02-28T07:04:20.397Z,100.00
2023-02-28T07:06:47.121Z,100.00
2023-02-28T07:09:15.031Z,100.00
2023-02-28T07:11:44.026Z,100.00
2023-02-28T07:14:10.776Z,100.00
2023-02-28T07:16:37.757Z,100.00
2023-02-28T07:19:04.800Z,100.00
2023-02-28T07:21:31.819Z,100.00
2023-02-28T07:23:58.996Z,100.00
2023-02-28T07:26:25.816Z,100.00
2023-02-28T07:28:52.625Z,100.00
2023-02-28T07:31:19.850Z,100.00
2023-02-28T07:33:46.858Z,100.00
2023-02-28T07:36:16.665Z,100.00
2023-02-28T07:38:48.102Z,100.00
2023-02-28T07:41:16.326Z,100.00
2023-02-28T07:43:43.106Z,100.00
2023-02-28T07:46:12.840Z,100.00
2023-02-28T07:48:39.684Z,100.00
2023-02-28T07:51:06.829Z,100.00
2023-02-28T07:53:33.828Z,100.00
2023-02-28T07:56:02.512Z,100.00
2023-02-28T07:58:31.399Z,100.00
2023-02-28T08:00:58.780Z,100.00
2023-02-28T08:03:26.101Z,100.00
2023-02-28T08:05:53.852Z,100.00
2023-02-28T08:08:20.732Z,100.00
2023-02-28T08:10:47.484Z,100.00
2023-02-28T08:13:14.227Z,100.00
2023-02-28T08:15:44.030Z,100.00
2023-02-28T08:18:11.128Z,100.00
2023-02-28T08:20:37.970Z,100.00
2023-02-28T08:23:04.785Z,100.00
2023-02-28T08:25:31.549Z,100.00
2023-02-28T08:27:58.364Z,100.00
2023-02-28T08:30:25.229Z,100.00
2023-02-28T08:32:52.028Z,100.00
2023-02-28T08:35:18.833Z,100.00
2023-02-28T08:37:45.914Z,100.00
2023-02-28T08:40:19.119Z,100.00
2023-02-28T08:42:46.894Z,100.00
2023-02-28T08:45:14.515Z,100.00
2023-02-28T08:47:42.020Z,87.69
2023-02-28T08:50:10.609Z,88.38
2023-02-28T08:52:37.450Z,81.99
2023-02-28T08:55:04.358Z,82.62
2023-02-28T08:57:31.151Z,87.70
2023-02-28T08:59:58.407Z,79.04
2023-02-28T09:02:25.206Z,78.38
2023-02-28T09:04:52.022Z,84.25
2023-02-28T09:07:18.837Z,88.45
2023-02-28T09:09:55.797Z,86.06
2023-02-28T09:12:27.204Z,86.31
2023-02-28T09:14:54.556Z,90.65
2023-02-28T09:17:21.883Z,92.73
2023-02-28T09:19:50.336Z,89.39
2023-02-28T09:22:17.625Z,90.13
2023-02-28T09:24:45.734Z,88.56
2023-02-28T09:27:12.597Z,90.99
2023-02-28T09:29:39.427Z,86.23
2023-02-28T09:32:07.013Z,85.91
2023-02-28T09:34:34.151Z,90.81
2023-02-28T09:37:00.987Z,95.31
2023-02-28T09:39:28.098Z,96.57
2023-02-28T09:41:56.701Z,92.08
2023-02-28T09:44:30.462Z,91.37
2023-02-28T09:47:09.596Z,92.76
2023-02-28T09:49:43.681Z,90.77
2023-02-28T09:52:14.960Z,88.49
2023-02-28T09:54:41.873Z,90.65
2023-02-28T09:57:26.928Z,92.00
2023-02-28T10:00:09.324Z,90.81
2023-02-28T10:02:47.362Z,93.10
2023-02-28T10:05:16.679Z,91.23
2023-02-28T10:08:12.981Z,93.18
2023-02-28T10:10:46.291Z,92.12
2023-02-28T10:13:19.149Z,90.59
2023-02-28T10:15:50.098Z,88.57
2023-02-28T10:18:26.581Z,89.15
2023-02-28T10:20:54.610Z,92.30
2023-02-28T10:23:49.116Z,90.12
2023-02-28T10:26:18.785Z,94.63
2023-02-28T10:28:46.466Z,93.10
2023-02-28T10:31:18.602Z,94.75
2023-02-28T10:33:46.284Z,95.73
2023-02-28T10:36:18.323Z,92.27
2023-02-28T10:38:47.555Z,93.92
2023-02-28T10:41:29.771Z,92.32
2023-02-28T10:44:16.656Z,92.58
2023-02-28T10:46:44.111Z,94.47
2023-02-28T10:49:23.225Z,94.92
2023-02-28T10:51:54.145Z,94.37
2023-02-28T10:54:38.923Z,94.43
2023-02-28T10:57:16.533Z,91.88
2023-02-28T10:59:43.656Z,92.23
2023-02-28T11:02:39.413Z,89.97
2023-02-28T11:05:29.353Z,90.80
2023-02-28T11:08:06.871Z,91.08
2023-02-28T11:10:35.949Z,89.89
2023-02-28T11:13:04.690Z,89.75
2023-02-28T11:15:34.591Z,87.15
2023-02-28T11:18:07.541Z,88.11
2023-02-28T11:20:35.905Z,86.26
2023-02-28T11:23:05.359Z,88.43
2023-02-28T11:25:39.986Z,88.30
2023-02-28T11:28:25.739Z,86.67
2023-02-28T11:31:04.935Z,84.20
2023-02-28T11:33:43.510Z,86.46
2023-02-28T11:36:32.133Z,83.72
2023-02-28T11:39:10.081Z,81.45
2023-02-28T11:42:08.553Z,80.02
2023-02-28T11:44:52.567Z,82.96
2023-02-28T11:47:27.826Z,81.98
2023-02-28T11:50:13.214Z,86.15
2023-02-28T11:52:57.156Z,86.39
2023-02-28T11:55:29.959Z,88.12
2023-02-28T11:58:11.890Z,87.46
2023-02-28T12:00:51.698Z,85.04
2023-02-28T12:03:31.703Z,85.77
2023-02-28T12:06:07.432Z,84.76
2023-02-28T12:09:02.220Z,84.56
2023-02-28T12:11:43.086Z,86.71
2023-02-28T12:14:48.270Z,87.57
2023-02-28T12:17:18.094Z,85.57
2023-02-28T12:20:11.668Z,85.86
2023-02-28T12:22:58.635Z,85.33
2023-02-28T12:25:50.588Z,85.42
2023-02-28T12:28:19.279Z,85.04
2023-02-28T12:31:10.890Z,86.24
2023-02-28T12:33:45.037Z,87.88
2023-02-28T12:36:18.572Z,89.91
2023-02-28T12:38:50.721Z,88.37
2023-02-28T12:41:42.395Z,89.75
2023-02-28T12:44:21.773Z,86.15
2023-02-28T12:46:52.805Z,85.60
2023-02-28T12:49:38.355Z,85.36
2023-02-28T12:52:06.348Z,87.15
2023-02-28T12:54:51.296Z,87.21
2023-02-28T12:57:40.628Z,88.19
2023-02-28T13:00:15.475Z,87.63
2023-02-28T13:02:42.389Z,88.57
2023-02-28T13:05:27.943Z,85.73
2023-02-28T13:08:12.941Z,86.74
2023-02-28T13:10:45.969Z,86.00
2023-02-28T13:13:18.106Z,87.06
2023-02-28T13:16:11.193Z,87.23
2023-02-28T13:18:40.927Z,87.63
2023-02-28T13:21:28.229Z,87.67
2023-02-28T13:23:59.403Z,88.49
2023-02-28T13:26:32.317Z,89.38
2023-02-28T13:29:03.288Z,89.76
2023-02-28T13:31:30.428Z,89.27
2023-02-28T13:34:03.524Z,89.78
2023-02-28T13:36:31.505Z,88.64
2023-02-28T13:39:23.997Z,88.70
2023-02-28T13:41:50.875Z,91.13
2023-02-28T13:44:27.831Z,91.10
2023-02-28T13:46:57.806Z,90.81
2023-02-28T13:49:24.678Z,90.72
2023-02-28T13:51:51.896Z,90.86
2023-02-28T13:54:40.649Z,90.50
2023-02-28T13:57:38.779Z,91.68
2023-02-28T14:00:09.382Z,92.21
2023-02-28T14:03:18.088Z,92.25
2023-02-28T14:05:45.797Z,92.02
2023-02-28T14:08:22.073Z,93.33
2023-02-28T14:10:52.061Z,93.68
2023-02-28T14:13:46.138Z,94.52
2023-02-28T14:16:21.496Z,92.13
2023-02-28T14:18:57.388Z,92.89
2023-02-28T14:21:35.310Z,91.84
2023-02-28T14:24:21.896Z,92.99
2023-02-28T14:27:07.357Z,92.58
2023-02-28T14:29:49.448Z,93.16
2023-02-28T14:32:39.423Z,92.73
2023-02-28T14:35:41.644Z,92.22
2023-02-28T14:38:18.931Z,93.41
2023-02-28T14:40:48.703Z,92.93
2023-02-28T14:43:26.952Z,94.15
2023-02-28T14:46:05.401Z,94.99
2023-02-28T14:48:32.449Z,93.50
2023-02-28T14:51:01.753Z,94.67
2023-02-28T14:53:37.620Z,94.72
2023-02-28T14:56:04.865Z,95.08
2023-02-28T14:58:34.180Z,94.90
2023-02-28T15:01:04.585Z,96.11
2023-02-28T15:03:33.515Z,95.04
2023-02-28T15:06:04.983Z,96.07
2023-02-28T15:08:36.205Z,96.31
2023-02-28T15:11:05.452Z,96.12
2023-02-28T15:13:54.381Z,97.94
2023-02-28T15:16:30.711Z,98.78
2023-02-28T15:19:14.287Z,97.23
2023-02-28T15:21:47.141Z,97.81
2023-02-28T15:24:28.160Z,99.32
2023-02-28T15:26:58.987Z,100.00
2023-02-28T15:29:30.187Z,100.00
2023-02-28T15:31:58.585Z,100.00
2023-02-28T15:34:42.901Z,100.00
2023-02-28T15:37:53.510Z,100.00
2023-02-28T15:40:23.232Z,100.00
2023-02-28T15:43:18.477Z,100.00
2023-02-28T15:45:47.355Z,100.00
2023-02-28T15:48:19.929Z,100.00
2023-02-28T15:50:54.744Z,100.00
2023-02-28T15:53:29.821Z,100.00
2023-02-28T15:56:01.636Z,100.00
2023-02-28T15:58:29.821Z,100.00
2023-02-28T16:01:24.987Z,100.00
2023-02-28T16:03:54.829Z,100.00
2023-02-28T16:06:53.448Z,100.00
2023-02-28T16:09:20.373Z,100.00
2023-02-28T16:11:49.729Z,100.00
2023-02-28T16:14:25.236Z,100.00
2023-02-28T16:16:57.342Z,100.00
2023-02-28T16:19:25.149Z,100.00
2023-02-28T16:21:52.643Z,100.00
2023-02-28T16:24:19.600Z,100.00
2023-02-28T16:26:53.380Z,100.00
2023-02-28T16:29:28.854Z,100.00
2023-02-28T16:31:56.083Z,100.00
2023-02-28T16:34:23.738Z,100.00
2023-02-28T16:36:51.309Z,100.00
2023-02-28T16:39:18.366Z,100.00
2023-02-28T16:41:47.442Z,100.00
2023-02-28T16:44:22.651Z,100.00
2023-02-28T16:46:49.798Z,100.00
2023-02-28T16:49:16.900Z,100.00
2023-02-28T16:51:43.739Z,100.00
2023-02-28T16:54:11.168Z,100.00
2023-02-28T16:56:43.684Z,100.00
2023-02-28T16:59:14.148Z,100.00
2023-02-28T17:01:41.287Z,100.00
2023-02-28T17:04:12.095Z,100.00
2023-02-28T17:06:41.444Z,100.00
2023-02-28T17:09:22.989Z,100.00
2023-02-28T17:11:51.593Z,100.00
2023-02-28T17:14:18.969Z,100.00
2023-02-28T17:16:46.385Z,100.00
2023-02-28T17:19:16.204Z,100.00
2023-02-28T17:21:44.847Z,100.00
2023-02-28T17:24:22.190Z,100.00
2023-02-28T17:26:57.007Z,100.00
2023-02-28T17:29:25.564Z,100.00
2023-02-28T17:31:53.453Z,100.00
2023-02-28T17:34:22.429Z,100.00
2023-02-28T17:36:51.452Z,100.00
2023-02-28T17:39:25.661Z,100.00
2023-02-28T17:41:54.447Z,100.00
2023-02-28T17:44:22.359Z,100.00
2023-02-28T17:46:50.665Z,100.00
2023-02-28T17:49:20.642Z,100.00
2023-02-28T17:51:48.915Z,100.00
2023-02-28T17:54:18.982Z,100.00
2023-02-28T17:56:47.057Z,100.00
2023-02-28T17:59:14.203Z,100.00
2023-02-28T18:01:41.572Z,100.00
2023-02-28T18:04:08.776Z,100.00
2023-02-28T18:06:52.497Z,100.00
2023-02-28T18:09:25.575Z,100.00
2023-02-28T18:11:54.645Z,100.00
2023-02-28T18:14:47.326Z,100.00
2023-02-28T18:17:14.513Z,100.00
2023-02-28T18:19:42.784Z,100.00
2023-02-28T18:22:10.648Z,100.00
2023-02-28T18:24:38.850Z,100.00
2023-02-28T18:27:07.739Z,100.00
2023-02-28T18:29:35.170Z,100.00
2023-02-28T18:32:03.030Z,100.00
2023-02-28T18:34:31.945Z,100.00
2023-02-28T18:36:59.401Z,100.00
2023-02-28T18:39:26.856Z,100.00
2023-02-28T18:41:54.556Z,100.00
2023-02-28T18:44:22.318Z,100.00
2023-02-28T18:46:51.264Z,100.00
2023-02-28T18:49:19.189Z,100.00
2023-02-28T18:51:47.648Z,100.00
2023-02-28T18:54:16.913Z,100.00
2023-02-28T18:56:53.866Z,100.00
2023-02-28T18:59:23.104Z,100.00
2023-02-28T19:01:52.188Z,100.00
2023-02-28T19:04:20.057Z,100.00
2023-02-28T19:06:47.996Z,100.00
2023-02-28T19:09:17.571Z,100.00
2023-02-28T19:11:45.313Z,100.00
2023-02-28T19:14:13.124Z,100.00
2023-02-28T19:16:42.321Z,100.00
2023-02-28T19:19:11.101Z,100.00
2023-02-28T19:21:41.967Z,100.00
2023-02-28T19:24:09.748Z,100.00
2023-02-28T19:26:37.812Z,100.00
2023-02-28T19:29:06.166Z,100.00
2023-02-28T19:31:34.368Z,100.00
2023-02-28T19:34:03.852Z,100.00
2023-02-28T19:36:31.720Z,100.00
2023-02-28T19:39:00.291Z,100.00
2023-02-28T19:41:27.858Z,100.00
2023-02-28T19:43:55.517Z,100.00
2023-02-28T19:46:26.624Z,100.00
2023-02-28T19:48:54.470Z,100.00
2023-02-28T19:51:22.230Z,100.00
2023-02-28T19:53:49.419Z,100.00
2023-02-28T19:56:16.645Z,100.00
2023-02-28T19:58:44.174Z,100.00
2023-02-28T20:01:15.023Z,100.00
2023-02-28T20:03:43.348Z,100.00
2023-02-28T20:06:14.387Z,100.00
2023-02-28T20:08:42.378Z,100.00
2023-02-28T20:11:13.530Z,100.00
2023-02-28T20:13:41.060Z,100.00
2023-02-28T20:16:11.770Z,100.00
2023-02-28T20:18:40.922Z,100.00
2023-02-28T20:21:09.659Z,100.00
2023-02-28T20:23:42.101Z,100.00
2023-02-28T20:26:10.223Z,100.00
2023-02-28T20:28:39.106Z,100.00
2023-02-28T20:31:18.812Z,100.00
2023-02-28T20:33:47.026Z,100.00
2023-02-28T20:36:16.013Z,100.00
2023-02-28T20:38:44.470Z,100.00
2023-02-28T20:41:12.843Z,100.00
2023-02-28T20:43:40.934Z,100.00
2023-02-28T20:46:10.924Z,100.00
2023-02-28T20:48:39.162Z,100.00
2023-02-28T20:51:08.036Z,100.00
2023-02-28T20:53:37.062Z,100.00
2023-02-28T20:56:09.597Z,100.00
2023-02-28T20:58:38.641Z,100.00
2023-02-28T21:01:20.570Z,100.00
2023-02-28T21:03:50.189Z,100.00
2023-02-28T21:06:19.680Z,100.00
2023-02-28T21:08:47.228Z,100.00
2023-02-28T21:11:20.638Z,100.00
2023-02-28T21:13:48.466Z,100.00
2023-02-28T21:16:18.003Z,100.00
2023-02-28T21:18:46.149Z,100.00
2023-02-28T21:21:16.287Z,100.00
2023-02-28T21:23:45.449Z,100.00
2023-02-28T21:26:20.781Z,100.00
2023-02-28T21:28:53.012Z,100.00
2023-02-28T21:31:22.425Z,100.00
2023-02-28T21:33:49.944Z,100.00
2023-02-28T21:36:20.028Z,100.00
2023-02-28T21:38:48.709Z,100.00
2023-02-28T21:41:18.786Z,100.00
2023-02-28T21:43:46.096Z,100.00
2023-02-28T21:46:16.229Z,100.00
2023-02-28T21:48:44.020Z,100.00
2023-02-28T21:51:19.738Z,100.00
2023-02-28T21:53:48.417Z,100.00
2023-02-28T21:56:20.943Z,100.00
2023-02-28T21:58:48.485Z,100.00
2023-02-28T22:01:18.615Z,100.00
2023-02-28T22:03:46.357Z,100.00
2023-02-28T22:06:19.394Z,100.00
2023-02-28T22:08:48.266Z,100.00
2023-02-28T22:11:17.087Z,100.00
2023-02-28T22:13:44.440Z,100.00
2023-02-28T22:16:16.949Z,100.00
2023-02-28T22:18:44.121Z,100.00
2023-02-28T22:21:12.556Z,100.00
2023-02-28T22:23:40.905Z,100.00
2023-02-28T22:26:10.708Z,100.00
2023-02-28T22:28:37.754Z,100.00
2023-02-28T22:31:22.075Z,100.00
2023-02-28T22:33:50.136Z,100.00
2023-02-28T22:36:19.467Z,100.00
2023-02-28T22:38:48.171Z,100.00
2023-02-28T22:41:15.226Z,100.00
2023-02-28T22:43:42.722Z,100.00
2023-02-28T22:46:12.915Z,100.00
2023-02-28T22:48:40.107Z,100.00
2023-02-28T22:51:12.649Z,100.00
2023-02-28T22:53:40.044Z,100.00
2023-02-28T22:56:08.823Z,100.00
2023-02-28T22:58:36.423Z,100.00
2023-02-28T23:01:15.225Z,100.00
2023-02-28T23:03:44.549Z,100.00
2023-02-28T23:06:25.884Z,100.00
2023-02-28T23:08:56.553Z,100.00
2023-02-28T23:11:32.652Z,100.00
2023-02-28T23:13:59.824Z,100.00
2023-02-28T23:16:31.133Z,100.00
2023-02-28T23:18:59.944Z,100.00
2023-02-28T23:21:27.870Z,100.00
2023-02-28T23:23:54.974Z,100.00
2023-02-28T23:26:22.045Z,100.00
2023-02-28T23:28:48.957Z,100.00
2023-02-28T23:31:16.267Z,100.00
2023-02-28T23:33:43.091Z,100.00
2023-02-28T23:36:12.287Z,100.00
2023-02-28T23:38:41.029Z,100.00
2023-02-28T23:41:09.461Z,100.00
2023-02-28T23:43:36.864Z,100.00
2023-02-28T23:46:04.463Z,100.00
2023-02-28T23:48:31.361Z,100.00
2023-02-28T23:51:08.839Z,100.00
2023-02-28T23:53:39.986Z,100.00
2023-02-28T23:56:09.799Z,100.00
2023-02-28T23:58:37.222Z,100.00
